Time;durP1;ratioP1;P1;durP2;ratioP2;P2;SDS_P1;SDS_P2;PMS_P1;PMS_P2;Temp;Humidity;BMP_temperature;BMP_pressure;BME280_temperature;BME280_humidity;BME280_pressure;Samples;Min_cycle;Max_cycle;Signal;HPM_P1;HPM_P2
2023/03/14 00:00:21;;;;;;;18.83;2.87;;;;;;;-145.18;100.00;46658.44;5012487;28;20076;-73
2023/03/14 00:02:52;;;;;;;15.00;2.80;;;;;;;-145.18;100.00;46670.16;5028780;28;20030;-73
2023/03/14 00:05:17;;;;;;;17.17;3.17;;;;;;;-145.18;100.00;46654.53;5025448;28;20053;-73
2023/03/14 00:07:42;;;;;;;14.33;2.30;;;;;;;-145.18;100.00;46660.41;5022797;28;20029;-72
2023/03/14 00:10:12;;;;;;;14.07;2.70;;;;;;;-145.18;100.00;46654.53;5020821;28;20030;-72
2023/03/14 00:12:37;;;;;;;11.27;2.63;;;;;;;-145.18;100.00;46666.25;5026800;28;20053;-72
2023/03/14 00:15:06;;;;;;;8.63;1.80;;;;;;;-145.18;100.00;46656.50;5008724;28;20093;-73
2023/03/14 00:17:34;;;;;;;11.23;1.67;;;;;;;-145.18;100.00;46662.34;5025265;28;20747;-74
2023/03/14 00:20:07;;;;;;;12.33;2.40;;;;;;;-145.18;100.00;46650.63;5023664;28;20282;-74
2023/03/14 00:22:34;;;;;;;12.60;1.60;;;;;;;-145.18;100.00;46648.69;5015260;28;20040;-74
2023/03/14 00:24:59;;;;;;;7.70;1.23;;;;;;;-145.18;100.00;46654.53;5011309;28;20040;-74
2023/03/14 00:27:25;;;;;;;13.43;1.83;;;;;;;-145.18;100.00;46642.81;5016124;28;20362;-74
2023/03/14 00:29:50;;;;;;;9.00;1.67;;;;;;;-145.18;100.00;46640.88;5019220;28;20045;-75
2023/03/14 00:32:16;;;;;;;13.43;1.73;;;;;;;-145.18;100.00;46644.78;5000919;28;20038;-74
2023/03/14 00:34:41;;;;;;;13.33;1.87;;;;;;;-145.18;100.00;46648.69;5011057;28;20034;-75
2023/03/14 00:37:07;;;;;;;10.57;1.57;;;;;;;-145.18;100.00;46640.88;5018434;28;20037;-74
2023/03/14 00:39:32;;;;;;;11.63;1.83;;;;;;;-145.18;100.00;46642.81;5000938;28;20034;-74
2023/03/14 00:41:57;;;;;;;11.03;1.47;;;;;;;-145.18;100.00;46662.34;5015695;28;20035;-74
2023/03/14 00:44:23;;;;;;;5.87;1.33;;;;;;;-145.18;100.00;46638.91;5028552;28;20188;-74
2023/03/14 00:46:49;;;;;;;13.27;1.90;;;;;;;-145.18;100.00;46638.91;5024635;28;20041;-74
2023/03/14 00:49:14;;;;;;;9.60;1.57;;;;;;;-145.18;100.00;46631.09;5020382;28;20129;-74
2023/03/14 00:51:40;;;;;;;7.77;1.27;;;;;;;-145.18;100.00;46629.13;5026144;28;20386;-75
2023/03/14 00:54:05;;;;;;;9.17;2.23;;;;;;;-145.18;100.00;46627.19;5010776;28;20076;-74
2023/03/14 00:56:31;;;;;;;10.80;1.60;;;;;;;-145.18;100.00;46660.41;5011540;28;20375;-74
2023/03/14 00:58:56;;;;;;;7.00;1.17;;;;;;;-145.18;100.00;46656.50;5018191;28;20033;-74
2023/03/14 01:01:23;;;;;;;16.77;2.70;;;;;;;-145.18;100.00;46658.44;5024697;28;20029;-74
2023/03/14 01:03:52;;;;;;;13.30;1.37;;;;;;;-145.18;100.00;46640.88;5012696;28;20033;-75
2023/03/14 01:06:20;;;;;;;14.77;0.93;;;;;;;-145.18;100.00;46642.81;5009989;28;20319;-75
2023/03/14 01:08:47;;;;;;;10.50;1.20;;;;;;;-145.18;100.00;46638.91;5024862;28;20281;-75
2023/03/14 01:11:17;;;;;;;12.27;1.40;;;;;;;-145.18;100.00;46638.91;5028161;28;20302;-74
2023/03/14 01:13:43;;;;;;;13.50;1.60;;;;;;;-145.18;100.00;46638.91;5011014;28;20389;-75
2023/03/14 01:16:09;;;;;;;6.40;1.10;;;;;;;-145.18;100.00;46636.94;5010047;28;20793;-77
2023/03/14 01:18:35;;;;;;;9.67;1.63;;;;;;;-145.18;100.00;46679.94;5015869;28;20069;-74
2023/03/14 01:21:03;;;;;;;5.50;1.23;;;;;;;-145.18;100.00;46707.28;5011444;28;20322;-74
2023/03/14 01:23:28;;;;;;;12.23;1.20;;;;;;;-145.18;100.00;46719.00;5018227;28;20490;-74
2023/03/14 01:25:53;;;;;;;6.73;1.50;;;;;;;-145.18;100.00;46720.94;5010614;28;20346;-74
2023/03/14 01:28:19;;;;;;;11.67;1.70;;;;;;;-145.18;100.00;46719.00;5016162;28;20551;-74
2023/03/14 01:30:44;;;;;;;15.27;1.57;;;;;;;-145.18;100.00;46713.13;5014777;28;20117;-75
2023/03/14 01:33:11;;;;;;;9.97;1.50;;;;;;;-145.18;100.00;46709.22;5021591;28;20490;-73
2023/03/14 01:35:36;;;;;;;10.20;1.63;;;;;;;-145.18;100.00;46705.31;5026811;28;20037;-73
2023/03/14 01:38:01;;;;;;;13.90;1.70;;;;;;;-145.18;100.00;46697.50;5014760;28;20294;-73
2023/03/14 01:40:27;;;;;;;12.40;2.47;;;;;;;-145.18;100.00;46707.28;5028184;28;20532;-73
2023/03/14 01:43:12;;;;;;;8.87;2.43;;;;;;;-145.18;100.00;46703.38;5012536;28;20041;-74
2023/03/14 01:46:05;;;;;;;10.70;1.63;;;;;;;-145.18;100.00;46685.78;5023505;28;20037;-72
2023/03/14 01:48:40;;;;;;;12.87;2.13;;;;;;;-145.18;100.00;46689.69;5016987;28;20384;-73
2023/03/14 01:51:14;;;;;;;13.68;1.60;;;;;;;-145.18;100.00;46693.59;5029981;28;20318;-73
2023/03/14 01:53:42;;;;;;;12.90;1.87;;;;;;;-145.18;100.00;46689.69;5031606;28;20120;-72
2023/03/14 01:56:13;;;;;;;8.60;1.83;;;;;;;-145.18;100.00;46689.69;5034219;28;20273;-72
2023/03/14 01:58:44;;;;;;;10.67;1.73;;;;;;;-145.18;100.00;46687.75;5026173;28;20283;-72
2023/03/14 02:03:54;;;;;;;10.57;2.33;;;;;;;-145.18;100.00;46687.75;4801677;23;20304;-74
2023/03/14 02:06:24;;;;;;;8.57;1.77;;;;;;;-145.18;100.00;46681.88;4992250;28;20046;-71
2023/03/14 02:08:50;;;;;;;12.17;2.27;;;;;;;-145.18;100.00;46687.75;4993126;28;20038;-71
2023/03/14 02:11:17;;;;;;;16.57;2.17;;;;;;;-145.18;100.00;46679.94;4994122;28;20291;-71
2023/03/14 02:13:43;;;;;;;12.57;3.10;;;;;;;-145.18;100.00;46685.78;4993602;28;20858;-72
2023/03/14 02:16:09;;;;;;;9.43;2.87;;;;;;;-145.18;100.00;46679.94;4993802;28;20296;-71
2023/03/14 02:18:34;;;;;;;17.23;2.37;;;;;;;-145.18;100.00;46689.69;4993891;28;20295;-73
2023/03/14 02:21:29;;;;;;;10.83;2.23;;;;;;;-145.18;100.00;46693.59;4993801;28;20061;-73
2023/03/14 02:24:07;;;;;;;10.57;2.17;;;;;;;-145.18;100.00;46695.56;4993842;28;20041;-73
2023/03/14 02:26:45;;;;;;;10.87;1.97;;;;;;;-145.18;100.00;46689.69;4974492;28;20269;-73
2023/03/14 02:29:10;;;;;;;15.40;2.00;;;;;;;-145.18;100.00;46703.38;4974689;28;20260;-73
2023/03/14 02:31:35;;;;;;;11.00;2.50;;;;;;;-145.18;100.00;46703.38;4974163;28;20408;-73
2023/03/14 02:34:02;;;;;;;13.40;1.97;;;;;;;-145.18;100.00;46691.66;4974227;28;20118;-73
2023/03/14 02:36:29;;;;;;;9.83;2.30;;;;;;;-145.18;100.00;46705.31;4993402;28;20038;-74
2023/03/14 02:39:06;;;;;;;9.97;2.20;;;;;;;-145.18;100.00;46697.50;4993389;28;20747;-74
2023/03/14 02:41:32;;;;;;;14.93;2.30;;;;;;;-145.18;100.00;46705.31;4993753;28;20299;-74
2023/03/14 02:43:57;;;;;;;9.77;1.83;;;;;;;-145.18;100.00;46707.28;4993172;28;20772;-74
2023/03/14 02:46:22;;;;;;;10.90;2.70;;;;;;;-145.18;100.00;46709.22;4993051;28;20058;-73
2023/03/14 02:48:53;;;;;;;10.40;2.10;;;;;;;-145.18;100.00;46705.31;4992959;28;20533;-73
2023/03/14 02:51:20;;;;;;;12.63;3.27;;;;;;;-145.18;100.00;46707.28;4993646;28;20042;-73
2023/03/14 02:53:45;;;;;;;8.87;1.50;;;;;;;-145.18;100.00;46711.19;4993116;28;20272;-73
2023/03/14 02:56:11;;;;;;;14.13;2.73;;;;;;;-145.18;100.00;46713.13;4993243;28;20299;-73
2023/03/14 02:58:38;;;;;;;13.80;2.30;;;;;;;-145.18;100.00;46711.19;4993176;28;20073;-73
2023/03/14 03:01:04;;;;;;;15.70;3.10;;;;;;;-145.18;100.00;46719.00;4994533;28;20034;-73
2023/03/14 03:03:29;;;;;;;12.87;2.10;;;;;;;-145.18;100.00;46715.09;5010483;28;20283;-73
2023/03/14 03:05:56;;;;;;;8.80;2.10;;;;;;;-145.18;100.00;46715.09;5011322;28;20034;-73
2023/03/14 03:08:24;;;;;;;17.37;2.30;;;;;;;-145.18;100.00;46717.03;5012737;28;20109;-74
2023/03/14 03:10:50;;;;;;;11.37;2.57;;;;;;;-145.18;100.00;46720.94;5012304;28;20314;-73
2023/03/14 03:13:16;;;;;;;14.80;2.03;;;;;;;-145.18;100.00;46717.03;5012035;28;20701;-74
2023/03/14 03:15:42;;;;;;;11.13;2.30;;;;;;;-145.18;100.00;46719.00;5012514;28;20279;-74
2023/03/14 03:18:07;;;;;;;16.13;2.80;;;;;;;-145.18;100.00;46717.03;5012413;28;20065;-74
2023/03/14 03:20:32;;;;;;;17.57;3.23;;;;;;;-145.18;100.00;46717.03;5012789;28;20037;-73
2023/03/14 03:22:59;;;;;;;10.97;2.50;;;;;;;-145.18;100.00;46715.09;5011833;28;20041;-73
2023/03/14 03:25:24;;;;;;;16.37;2.20;;;;;;;-145.18;100.00;46717.03;5012388;28;20061;-73
2023/03/14 03:27:49;;;;;;;11.10;2.67;;;;;;;-145.18;100.00;46715.09;5012122;28;20271;-73
2023/03/14 03:30:15;;;;;;;21.83;4.27;;;;;;;-145.18;100.00;46713.13;4994678;28;20053;-74
2023/03/14 03:32:40;;;;;;;21.67;2.43;;;;;;;-145.18;100.00;46715.09;5011870;28;20104;-73
2023/03/14 03:35:06;;;;;;;19.47;2.10;;;;;;;-145.18;100.00;46715.09;5011956;28;20206;-73
2023/03/14 03:37:32;;;;;;;14.90;2.60;;;;;;;-145.18;100.00;46713.13;5012073;28;20034;-73
2023/03/14 03:39:58;;;;;;;16.63;3.03;;;;;;;-145.18;100.00;46713.13;5012116;28;20029;-73
2023/03/14 03:42:23;;;;;;;11.87;1.90;;;;;;;-145.18;100.00;46715.09;5011802;28;20274;-73
2023/03/14 03:44:49;;;;;;;10.37;2.07;;;;;;;-145.18;100.00;46711.19;5011683;28;20046;-73
2023/03/14 03:47:15;;;;;;;16.43;1.70;;;;;;;-145.18;100.00;46715.09;5011980;28;20029;-73
2023/03/14 03:49:40;;;;;;;12.30;1.80;;;;;;;-145.18;100.00;46713.13;5011634;28;20252;-73
2023/03/14 03:52:05;;;;;;;10.67;1.80;;;;;;;-145.18;100.00;46715.09;5011274;28;20061;-73
2023/03/14 03:54:31;;;;;;;12.23;1.80;;;;;;;-145.18;100.00;46715.09;5011668;28;20026;-71
2023/03/14 03:56:56;;;;;;;13.50;2.17;;;;;;;-145.18;100.00;46715.09;5011720;28;20030;-72
2023/03/14 03:59:22;;;;;;;13.13;1.80;;;;;;;-145.18;100.00;46717.03;5011901;28;20490;-71
2023/03/14 04:01:47;;;;;;;11.20;2.53;;;;;;;-145.18;100.00;46713.13;5011415;28;20121;-72
2023/03/14 04:04:13;;;;;;;14.83;2.60;;;;;;;-145.18;100.00;46715.09;5011345;28;20049;-72
2023/03/14 04:06:40;;;;;;;17.47;2.13;;;;;;;-145.18;100.00;46717.03;5011818;28;20513;-71
2023/03/14 04:09:05;;;;;;;9.30;1.87;;;;;;;-145.18;100.00;46717.03;5011088;28;20771;-71
2023/03/14 04:11:30;;;;;;;9.63;2.47;;;;;;;-145.18;100.00;46715.09;5011217;28;20310;-71
2023/03/14 04:13:56;;;;;;;14.50;2.17;;;;;;;-145.18;100.00;46713.13;5011206;28;20683;-72
2023/03/14 04:16:24;;;;;;;10.40;2.67;;;;;;;-145.18;100.00;46715.09;4993681;28;20096;-71
2023/03/14 04:18:49;;;;;;;11.93;1.37;;;;;;;-145.18;100.00;46719.00;5011118;28;20421;-71
2023/03/14 04:21:16;;;;;;;12.33;2.83;;;;;;;-145.18;100.00;46713.13;5011484;28;20275;-73
2023/03/14 04:23:41;;;;;;;9.40;2.10;;;;;;;-145.18;100.00;46711.19;5011211;28;20030;-73
2023/03/14 04:26:07;;;;;;;13.77;2.07;;;;;;;-145.18;100.00;46715.09;5010971;28;20357;-73
2023/03/14 04:28:32;;;;;;;11.33;1.73;;;;;;;-145.18;100.00;46709.22;5011377;28;20394;-73
2023/03/14 04:30:58;;;;;;;7.80;1.30;;;;;;;-145.18;100.00;46711.19;5011153;28;20096;-73
2023/03/14 04:33:23;;;;;;;13.27;1.93;;;;;;;-145.18;100.00;46707.28;5010638;28;20045;-74
2023/03/14 04:35:52;;;;;;;7.57;1.80;;;;;;;-145.18;100.00;46715.09;5010886;28;20034;-74
2023/03/14 04:38:18;;;;;;;15.73;1.53;;;;;;;-145.18;100.00;46713.13;5011162;28;20033;-74
2023/03/14 04:40:44;;;;;;;7.13;1.50;;;;;;;-145.18;100.00;46711.19;5010943;28;20298;-74
2023/03/14 04:43:10;;;;;;;7.47;1.77;;;;;;;-145.18;100.00;46713.13;5011076;28;20034;-74
2023/03/14 04:45:36;;;;;;;10.23;2.20;;;;;;;-145.18;100.00;46709.22;5010665;28;20267;-74
2023/03/14 04:48:01;;;;;;;5.97;1.60;;;;;;;-145.18;100.00;46709.22;5009993;28;20756;-71
2023/03/14 04:50:27;;;;;;;13.43;2.73;;;;;;;-145.18;100.00;46711.19;5010607;28;20046;-74
2023/03/14 04:52:52;;;;;;;9.20;3.53;;;;;;;-145.18;100.00;46713.13;5010465;28;20041;-73
2023/03/14 04:55:18;;;;;;;7.43;2.57;;;;;;;-145.18;100.00;46707.28;5008239;28;20599;-73
2023/03/14 04:57:43;;;;;;;7.40;2.90;;;;;;;-145.18;100.00;46709.22;5009010;28;20124;-73
2023/03/14 05:00:09;;;;;;;11.17;3.30;;;;;;;-145.18;100.00;46713.13;5006167;28;20046;-73
2023/03/14 05:02:35;;;;;;;11.10;4.13;;;;;;;-145.18;100.00;46705.31;5009098;28;20085;-74
2023/03/14 05:05:00;;;;;;;16.10;4.20;;;;;;;-145.18;100.00;46705.31;5001161;28;20287;-73
2023/03/14 05:07:26;;;;;;;10.90;4.17;;;;;;;-145.18;100.00;46709.22;5007292;28;20034;-73
2023/03/14 05:09:53;;;;;;;13.40;4.00;;;;;;;-145.18;100.00;46705.31;5010030;28;20100;-73
2023/03/14 05:12:19;;;;;;;11.23;4.33;;;;;;;-145.18;100.00;46705.31;5009863;28;20100;-74
2023/03/14 05:14:44;;;;;;;10.47;4.27;;;;;;;-145.18;100.00;46703.38;5003598;28;20275;-74
2023/03/14 05:17:10;;;;;;;11.03;4.33;;;;;;;-145.18;100.00;46703.38;5009976;28;20403;-74
2023/03/14 05:19:35;;;;;;;11.67;4.43;;;;;;;-145.18;100.00;46695.56;5010209;28;20453;-73
2023/03/14 05:22:01;;;;;;;11.03;4.70;;;;;;;-145.18;100.00;46697.50;5010703;28;20049;-73
2023/03/14 05:24:26;;;;;;;11.93;5.67;;;;;;;-145.18;100.00;46699.47;5009647;28;20045;-74
2023/03/14 05:26:51;;;;;;;15.30;5.57;;;;;;;-145.18;100.00;46691.66;5009304;28;20046;-74
2023/03/14 05:29:17;;;;;;;14.70;6.93;;;;;;;-145.18;100.00;46695.56;5009249;28;20045;-74
2023/03/14 05:31:42;;;;;;;12.03;6.07;;;;;;;-145.18;100.00;46687.75;5010071;28;20046;-74
2023/03/14 05:34:07;;;;;;;14.13;6.27;;;;;;;-145.18;100.00;46685.78;5009509;28;20038;-74
2023/03/14 05:36:33;;;;;;;13.13;6.07;;;;;;;-145.18;100.00;46687.75;5010161;28;20061;-74
2023/03/14 05:38:58;;;;;;;13.17;6.63;;;;;;;-145.18;100.00;46683.84;5009816;28;20048;-73
2023/03/14 05:41:23;;;;;;;14.60;5.93;;;;;;;-145.18;100.00;46685.78;4992439;28;20458;-74
2023/03/14 05:43:49;;;;;;;18.00;7.43;;;;;;;-145.18;100.00;46685.78;5009141;28;20077;-74
2023/03/14 05:46:14;;;;;;;13.30;7.37;;;;;;;-145.18;100.00;46683.84;5009037;28;20038;-74
2023/03/14 05:48:39;;;;;;;18.53;8.40;;;;;;;-145.18;100.00;46681.88;5008899;28;20076;-74
2023/03/14 05:51:05;;;;;;;20.07;8.37;;;;;;;-145.18;100.00;46681.88;5008993;28;20069;-74
2023/03/14 05:53:31;;;;;;;16.07;8.47;;;;;;;-145.18;100.00;46681.88;4992214;28;20453;-74
2023/03/14 05:55:56;;;;;;;16.17;9.23;;;;;;;-145.18;100.00;46685.78;5009856;28;20034;-74
2023/03/14 05:58:22;;;;;;;19.63;8.47;;;;;;;-145.18;100.00;46676.03;5009795;28;20040;-74
2023/03/14 06:00:49;;;;;;;20.03;10.27;;;;;;;-145.18;100.00;46676.03;5010212;28;20038;-74
2023/03/14 06:03:14;;;;;;;18.57;8.37;;;;;;;-145.18;100.00;46681.88;5009774;28;20113;-74
2023/03/14 06:05:40;;;;;;;17.97;8.17;;;;;;;-145.18;100.00;46672.13;4992485;28;20695;-75
2023/03/14 06:08:05;;;;;;;18.60;8.80;;;;;;;-145.18;100.00;46676.03;5009750;28;20030;-72
2023/03/14 06:10:31;;;;;;;19.07;9.30;;;;;;;-145.18;100.00;46668.22;5010232;28;20037;-72
2023/03/14 06:12:56;;;;;;;18.07;8.87;;;;;;;-145.18;100.00;46670.16;5009885;28;20061;-71
2023/03/14 06:15:22;;;;;;;19.03;8.10;;;;;;;-145.18;100.00;46676.03;5008422;28;20034;-72
2023/03/14 06:17:47;;;;;;;17.87;8.23;;;;;;;-145.18;100.00;46676.03;4991823;28;20037;-72
2023/03/14 06:20:13;;;;;;;13.60;8.30;;;;;;;-145.18;100.00;46674.06;5010139;28;20084;-72
2023/03/14 06:22:40;;;;;;;16.87;8.80;;;;;;;-145.18;100.00;46677.97;5009774;28;20090;-72
2023/03/14 06:25:06;;;;;;;22.30;9.13;;;;;;;-145.18;100.00;46674.06;5009782;28;20274;-72
2023/03/14 06:27:31;;;;;;;16.23;8.53;;;;;;;-145.18;100.00;46670.16;5009805;28;20334;-73
2023/03/14 06:29:57;;;;;;;16.67;7.47;;;;;;;-145.18;100.00;46670.16;5009841;28;20270;-72
2023/03/14 06:32:22;;;;;;;8.00;2.37;;;;;;;-145.18;100.00;46677.97;5009918;28;20426;-71
2023/03/14 06:34:47;;;;;;;4.00;0.93;;;;;;;-145.18;100.00;46676.03;5009441;28;20050;-71
2023/03/14 06:37:13;;;;;;;8.67;1.17;;;;;;;-145.18;100.00;46677.97;5010234;28;20525;-71
2023/03/14 06:39:38;;;;;;;4.33;0.60;;;;;;;-145.18;100.00;46672.13;5011525;28;20446;-71
2023/03/14 06:42:04;;;;;;;1.00;0.43;;;;;;;-145.18;100.00;46674.06;4995753;28;20040;-72
2023/03/14 06:44:30;;;;;;;3.67;1.00;;;;;;;-145.18;100.00;46670.16;5013277;28;20029;-72
2023/03/14 06:46:55;;;;;;;4.70;0.77;;;;;;;-145.18;100.00;46672.13;5013271;28;20639;-72
2023/03/14 06:49:21;;;;;;;3.13;0.50;;;;;;;-145.18;100.00;46674.06;5001496;28;20494;-72
2023/03/14 06:51:46;;;;;;;3.63;0.50;;;;;;;-145.18;100.00;46676.03;5010762;28;20034;-72
2023/03/14 06:54:12;;;;;;;9.40;0.80;;;;;;;-145.18;100.00;46672.13;5005363;28;20295;-72
2023/03/14 06:56:37;;;;;;;5.47;0.70;;;;;;;-145.18;100.00;46666.25;5000325;28;20026;-72
2023/03/14 06:59:03;;;;;;;1.33;0.50;;;;;;;-145.18;100.00;46668.22;5008055;28;20366;-72
2023/03/14 07:01:30;;;;;;;9.17;1.00;;;;;;;-145.18;100.00;46672.13;5003651;28;20451;-72
2023/03/14 07:03:56;;;;;;;2.87;0.80;;;;;;;-145.18;100.00;46674.06;4999091;28;20526;-72
2023/03/14 07:06:21;;;;;;;1.77;0.70;;;;;;;-145.18;100.00;46670.16;5003086;28;20288;-72
2023/03/14 07:08:47;;;;;;;7.53;1.10;;;;;;;-145.18;100.00;46672.13;5000004;28;20054;-72
2023/03/14 07:11:12;;;;;;;5.83;1.07;;;;;;;-145.18;100.00;46664.31;5001270;28;20044;-72
2023/03/14 07:13:38;;;;;;;8.63;1.27;;;;;;;-145.18;100.00;46662.34;4997269;28;20089;-71
2023/03/14 07:16:05;;;;;;;3.40;1.10;;;;;;;-145.18;100.00;46666.25;4984011;28;20039;-72
2023/03/14 07:18:30;;;;;;;6.33;1.30;;;;;;;-145.18;100.00;46668.22;4991836;28;20491;-72
2023/03/14 07:20:55;;;;;;;4.07;1.50;;;;;;;-145.18;100.00;46664.31;4990911;28;20387;-71
2023/03/14 07:23:21;;;;;;;5.13;1.13;;;;;;;-145.18;100.00;46668.22;4986058;28;20061;-73
2023/03/14 07:25:46;;;;;;;7.13;1.13;;;;;;;-145.18;100.00;46668.22;4992188;28;20034;-73
2023/03/14 07:28:12;;;;;;;2.77;1.07;;;;;;;-145.18;100.00;46664.31;4992508;28;20550;-74
2023/03/14 07:30:37;;;;;;;10.57;1.27;;;;;;;-145.18;100.00;46664.31;4991907;28;20406;-74
2023/03/14 07:33:02;;;;;;;7.57;1.43;;;;;;;-145.18;100.00;46664.31;4991854;28;20209;-74
2023/03/14 07:35:28;;;;;;;2.00;0.97;;;;;;;-145.18;100.00;46664.31;4991754;28;20035;-74
2023/03/14 07:37:53;;;;;;;5.13;1.27;;;;;;;-145.18;100.00;46664.31;4991661;28;20069;-74
2023/03/14 07:40:19;;;;;;;5.00;0.90;;;;;;;-145.18;100.00;46662.34;4992318;28;20573;-74
2023/03/14 07:42:44;;;;;;;10.13;1.93;;;;;;;-145.18;100.00;46660.41;4991767;28;20035;-72
2023/03/14 07:45:10;;;;;;;3.13;0.60;;;;;;;-145.18;100.00;46662.34;4992078;28;20083;-72
2023/03/14 07:47:36;;;;;;;5.20;1.07;;;;;;;-145.18;100.00;46662.34;4992413;28;20129;-72
2023/03/14 07:50:03;;;;;;;2.67;0.63;;;;;;;-145.18;100.00;46662.34;4973600;28;20367;-72
2023/03/14 07:52:29;;;;;;;10.03;1.27;;;;;;;-145.18;100.00;46654.53;4991675;28;20590;-72
2023/03/14 07:54:54;;;;;;;3.87;1.07;;;;;;;-145.18;100.00;46660.41;4991884;28;20311;-71
2023/03/14 07:57:20;;;;;;;2.10;1.10;;;;;;;-145.18;100.00;46656.50;4992052;28;20038;-72
2023/03/14 07:59:45;;;;;;;4.80;1.07;;;;;;;-145.18;100.00;46658.44;4991522;28;20487;-71
2023/03/14 08:02:11;;;;;;;2.43;1.03;;;;;;;-145.18;100.00;46652.59;4991832;28;20050;-71
2023/03/14 08:04:38;;;;;;;8.27;0.80;;;;;;;-145.18;100.00;46650.63;5003568;28;20026;-71
2023/03/14 08:07:03;;;;;;;4.00;1.37;;;;;;;-145.18;100.00;46652.59;4991967;28;20271;-71
2023/03/14 08:09:29;;;;;;;7.37;1.10;;;;;;;-145.18;100.00;46654.53;4991738;28;20280;-71
2023/03/14 08:11:54;;;;;;;4.30;0.77;;;;;;;-145.18;100.00;46656.50;4991503;28;20030;-71
2023/03/14 08:14:20;;;;;;;3.07;0.87;;;;;;;-145.18;100.00;46654.53;4998809;28;20030;-73
2023/03/14 08:16:45;;;;;;;6.17;1.33;;;;;;;-145.18;100.00;46658.44;5011144;28;20509;-73
2023/03/14 08:19:11;;;;;;;6.43;0.93;;;;;;;-145.18;100.00;46660.41;5011386;28;20058;-73
2023/03/14 08:21:36;;;;;;;4.63;1.03;;;;;;;-145.18;100.00;46658.44;5011273;28;20556;-73
2023/03/14 08:24:02;;;;;;;10.70;0.90;;;;;;;-145.18;100.00;46662.34;5010594;28;20823;-73
2023/03/14 08:26:27;;;;;;;5.63;0.60;;;;;;;-145.18;100.00;46666.25;5011258;28;20042;-73
2023/03/14 08:28:53;;;;;;;4.60;0.73;;;;;;;-145.18;100.00;46662.34;5010728;28;20490;-73
2023/03/14 08:31:18;;;;;;;7.57;1.27;;;;;;;-145.18;100.00;46664.31;5011073;28;20121;-72
2023/03/14 08:33:44;;;;;;;9.20;1.10;;;;;;;-145.18;100.00;46662.34;5010675;28;20457;-72
2023/03/14 08:36:09;;;;;;;5.00;1.73;;;;;;;-145.18;100.00;46662.34;4992991;28;20030;-72
2023/03/14 08:38:35;;;;;;;3.37;1.37;;;;;;;-145.18;100.00;46668.22;5010904;28;20066;-73
2023/03/14 08:41:02;;;;;;;2.77;1.07;;;;;;;-145.18;100.00;46656.50;5010635;28;20038;-74
2023/03/14 08:43:28;;;;;;;5.30;1.07;;;;;;;-145.18;100.00;46662.34;5010972;28;20107;-74
2023/03/14 08:45:56;;;;;;;3.77;1.13;;;;;;;-145.18;100.00;46664.31;5010341;28;20748;-74
2023/03/14 08:48:22;;;;;;;3.80;1.43;;;;;;;-145.18;100.00;46660.41;5010791;28;20263;-73
2023/03/14 08:50:47;;;;;;;5.70;1.47;;;;;;;-145.18;100.00;46660.41;4978995;28;20295;-73
2023/03/14 08:53:13;;;;;;;7.33;1.50;;;;;;;-145.18;100.00;46658.44;5010714;28;20060;-73
2023/03/14 08:55:39;;;;;;;1.50;0.80;;;;;;;-145.18;100.00;46664.31;5010408;28;20026;-73
2023/03/14 08:58:04;;;;;;;1.53;0.80;;;;;;;-145.18;100.00;46662.34;5010094;28;20431;-73
2023/03/14 09:00:29;;;;;;;3.63;0.63;;;;;;;-145.18;100.00;46658.44;5010646;28;20029;-73
2023/03/14 09:02:55;;;;;;;1.93;0.90;;;;;;;-145.18;100.00;46658.44;5009266;28;20406;-73
2023/03/14 09:05:20;;;;;;;2.47;0.57;;;;;;;-145.18;100.00;46666.25;5010445;28;20044;-73
2023/03/14 09:07:46;;;;;;;5.87;0.73;;;;;;;-145.18;100.00;46668.22;5010301;28;20390;-73
2023/03/14 09:10:11;;;;;;;2.27;0.70;;;;;;;-145.18;100.00;46662.34;5009956;28;20133;-73
2023/03/14 09:12:37;;;;;;;5.60;0.57;;;;;;;-145.18;100.00;46668.22;5010062;28;20042;-73
2023/03/14 09:15:02;;;;;;;3.03;0.70;;;;;;;-145.18;100.00;46668.22;5007940;28;20178;-73
2023/03/14 09:17:28;;;;;;;3.80;0.63;;;;;;;-145.18;100.00;46668.22;5010411;28;20073;-73
2023/03/14 09:19:53;;;;;;;6.43;0.70;;;;;;;-145.18;100.00;46674.06;5009023;28;20030;-73
2023/03/14 09:22:20;;;;;;;7.07;1.43;;;;;;;-145.18;100.00;46677.97;5010443;28;20092;-73
2023/03/14 09:24:46;;;;;;;2.63;0.43;;;;;;;-145.18;100.00;46676.03;5007478;28;20026;-73
2023/03/14 09:27:11;;;;;;;6.57;0.60;;;;;;;-145.18;100.00;46679.94;5003552;28;20812;-73
2023/03/14 09:29:36;;;;;;;8.80;0.90;;;;;;;-145.18;100.00;46683.84;5009683;28;20034;-73
2023/03/14 09:32:03;;;;;;;5.53;1.20;;;;;;;-145.18;100.00;46672.13;5001235;28;20064;-74
2023/03/14 09:34:28;;;;;;;9.60;3.13;;;;;;;-145.18;100.00;46660.41;4999263;28;20049;-74
2023/03/14 09:36:54;;;;;;;9.17;2.20;;;;;;;-145.18;100.00;46650.63;5006602;28;20267;-74
2023/03/14 09:39:19;;;;;;;7.07;2.27;;;;;;;-145.18;100.00;46597.88;5006191;28;20089;-73
2023/03/14 09:41:48;;;;;;;6.80;0.73;;;;;;;-145.18;100.00;46570.53;5009275;28;20046;-74
2023/03/14 09:44:31;;;;;;;9.57;1.43;;;;;;;-145.18;100.00;46568.59;5009703;28;20038;-73
2023/03/14 09:47:04;;;;;;;10.40;1.37;;;;;;;-145.18;100.00;46582.25;5009943;28;20263;-73
2023/03/14 09:49:39;;;;;;;7.73;1.53;;;;;;;-145.18;100.00;46607.66;5009265;28;20279;-74
2023/03/14 09:52:29;;;;;;;13.20;1.37;;;;;;;-145.18;100.00;46625.22;5009784;28;20290;-73
2023/03/14 09:54:59;;;;;;;8.00;1.50;;;;;;;-145.18;100.00;46642.81;5008353;28;20275;-74
2023/03/14 09:57:26;;;;;;;10.43;1.83;;;;;;;-145.18;100.00;46681.88;5010111;28;20295;-73
2023/03/14 09:59:56;;;;;;;9.13;1.73;;;;;;;-145.18;100.00;46730.72;5008873;28;20882;-73
2023/03/14 10:02:28;;;;;;;15.00;2.17;;;;;;;-145.18;100.00;46754.16;5009959;28;20275;-73
2023/03/14 10:04:54;;;;;;;21.43;1.67;;;;;;;-145.18;100.00;46781.50;5009400;28;20302;-73
2023/03/14 10:07:30;;;;;;;13.40;1.63;;;;;;;-145.18;100.00;46773.69;5009498;28;21051;-73
2023/03/14 10:09:56;;;;;;;17.30;1.87;;;;;;;-145.18;100.00;46779.56;5003661;28;20066;-73
2023/03/14 10:12:34;;;;;;;9.60;1.80;;;;;;;-145.18;100.00;46777.59;4990249;28;20783;-73
2023/03/14 10:15:10;;;;;;;10.07;2.17;;;;;;;-145.18;100.00;46763.91;5011495;28;20270;-73
2023/03/14 10:17:40;;;;;;;9.57;2.70;;;;;;;-145.18;100.00;46754.16;5013270;28;20282;-73
2023/03/14 10:20:06;;;;;;;14.30;1.70;;;;;;;-145.18;100.00;46719.00;5012529;28;20292;-73
2023/03/14 10:22:32;;;;;;;12.93;1.73;;;;;;;-145.18;100.00;46717.03;5013117;28;20282;-73
2023/03/14 10:25:25;;;;;;;12.73;1.70;;;;;;;-145.18;100.00;46676.03;5007266;28;20459;-73
2023/03/14 10:27:51;;;;;;;13.90;1.53;;;;;;;-145.18;100.00;46644.78;5006128;28;20041;-73
2023/03/14 10:30:55;;;;;;;10.60;1.97;;;;;;;-145.18;100.00;46623.28;5013055;28;20449;-73
2023/03/14 10:33:25;;;;;;;9.50;1.63;;;;;;;-145.18;100.00;46613.50;5010095;28;20042;-73
2023/03/14 10:36:37;;;;;;;11.57;1.87;;;;;;;-145.18;100.00;46607.66;5012700;28;20263;-73
2023/03/14 10:39:38;;;;;;;17.50;2.97;;;;;;;-145.18;100.00;46617.41;5010470;28;20287;-73
2023/03/14 10:42:13;;;;;;;16.90;2.80;;;;;;;-145.18;100.00;46625.22;4970979;28;20806;-73
2023/03/14 10:44:39;;;;;;;18.63;2.00;;;;;;;-145.18;100.00;46629.13;5012700;28;20275;-72
2023/03/14 10:47:05;;;;;;;13.83;2.77;;;;;;;-145.18;100.00;46642.81;5012383;28;20275;-73
2023/03/14 10:49:36;;;;;;;14.60;1.93;;;;;;;-145.18;100.00;46652.59;5012036;28;20276;-73
2023/03/14 10:52:26;;;;;;;9.27;1.40;;;;;;;-145.18;100.00;46687.75;5011819;28;20037;-73
2023/03/14 10:55:02;;;;;;;14.20;1.53;;;;;;;-145.18;100.00;46685.78;5011828;28;20279;-73
2023/03/14 10:57:28;;;;;;;14.37;1.80;;;;;;;-145.18;100.00;46691.66;5012262;28;20275;-73
2023/03/14 10:59:56;;;;;;;11.67;1.90;;;;;;;-145.18;100.00;46701.41;5011644;28;20290;-73
2023/03/14 11:02:27;;;;;;;21.27;2.33;;;;;;;-145.18;100.00;46711.19;5012179;28;20045;-73
2023/03/14 11:05:04;;;;;;;22.00;3.80;;;;;;;-145.18;100.00;46713.13;5009141;28;20275;-73
2023/03/14 11:07:40;;;;;;;18.90;3.73;;;;;;;-145.18;100.00;46730.72;4993082;28;20282;-73